createdAt,value
2023-01-19T00:01:00.691Z,66.53
2023-01-19T00:03:28.066Z,70.00
2023-01-19T00:05:55.492Z,71.65
2023-01-19T00:08:22.953Z,73.85
2023-01-19T00:10:53.727Z,75.35
2023-01-19T00:13:21.977Z,75.05
2023-01-19T00:15:49.629Z,69.15
2023-01-19T00:18:17.090Z,63.38
2023-01-19T00:20:48.668Z,70.85
2023-01-19T00:23:16.504Z,70.97
2023-01-19T00:25:44.010Z,74.82
2023-01-19T00:28:12.954Z,73.63
2023-01-19T00:30:41.413Z,69.28
2023-01-19T00:33:10.053Z,73.55
2023-01-19T00:35:37.440Z,74.60
2023-01-19T00:38:04.859Z,71.75
2023-01-19T00:40:32.243Z,76.00
2023-01-19T00:43:00.646Z,71.50
2023-01-19T00:45:28.670Z,81.20
2023-01-19T00:47:57.316Z,81.65
2023-01-19T00:50:27.136Z,75.10
2023-01-19T00:52:55.870Z,73.90
2023-01-19T00:55:24.251Z,78.28
2023-01-19T00:57:51.676Z,78.35
2023-01-19T01:00:23.912Z,70.82
2023-01-19T01:02:52.807Z,78.45
2023-01-19T01:05:20.697Z,79.63
2023-01-19T01:07:49.527Z,77.68
2023-01-19T01:10:20.728Z,77.85
2023-01-19T01:13:05.031Z,78.07
2023-01-19T01:15:36.432Z,78.30
2023-01-19T01:18:03.910Z,74.88
2023-01-19T01:20:33.631Z,75.60
2023-01-19T01:23:01.331Z,76.07
2023-01-19T01:25:31.112Z,75.38
2023-01-19T01:27:58.637Z,77.30
2023-01-19T01:30:26.086Z,71.90
2023-01-19T01:32:53.453Z,73.82
2023-01-19T01:35:20.835Z,70.38
2023-01-19T01:37:48.241Z,77.13
2023-01-19T01:40:17.641Z,71.93
2023-01-19T01:42:45.758Z,71.05
2023-01-19T01:45:40.337Z,74.63
2023-01-19T01:48:30.347Z,66.45
2023-01-19T01:51:24.028Z,63.35
2023-01-19T01:54:06.762Z,69.75
2023-01-19T01:56:44.010Z,61.28
2023-01-19T01:59:26.028Z,70.47
2023-01-19T02:02:18.148Z,75.15
2023-01-19T02:05:35.611Z,69.07
2023-01-19T02:08:52.095Z,69.28
2023-01-19T02:11:38.001Z,74.88
2023-01-19T02:14:06.611Z,66.40
2023-01-19T02:16:36.607Z,64.22
2023-01-19T02:19:07.191Z,72.88
2023-01-19T02:22:02.071Z,76.55
2023-01-19T02:24:29.964Z,72.78
2023-01-19T02:26:58.029Z,67.72
2023-01-19T02:29:26.615Z,64.78
2023-01-19T02:31:55.691Z,75.78
2023-01-19T02:34:23.430Z,79.32
2023-01-19T02:36:58.542Z,71.35
2023-01-19T02:39:38.729Z,72.25
2023-01-19T02:42:16.028Z,70.60
2023-01-19T02:44:47.435Z,70.28
2023-01-19T02:47:15.963Z,73.15
2023-01-19T02:49:43.274Z,73.13
2023-01-19T02:52:17.498Z,76.28
2023-01-19T02:54:56.252Z,74.82
2023-01-19T02:57:50.914Z,72.35
2023-01-19T03:00:24.003Z,74.70
2023-01-19T03:03:21.934Z,74.18
2023-01-19T03:05:54.909Z,75.05
2023-01-19T03:08:42.595Z,75.38
2023-01-19T03:11:12.671Z,77.80
2023-01-19T03:14:01.985Z,75.97
2023-01-19T03:16:42.790Z,68.32
2023-01-19T03:19:22.909Z,66.95
2023-01-19T03:21:55.123Z,82.53
2023-01-19T03:24:24.984Z,65.97
2023-01-19T03:26:58.949Z,67.20
2023-01-19T03:29:32.449Z,71.78
2023-01-19T03:32:04.320Z,72.13
2023-01-19T03:34:32.613Z,74.63
2023-01-19T03:37:04.321Z,84.22
2023-01-19T03:39:31.998Z,75.90
2023-01-19T03:42:04.912Z,72.63
2023-01-19T03:44:34.898Z,71.40
2023-01-19T03:47:04.544Z,70.97
2023-01-19T03:49:33.016Z,81.88
2023-01-19T03:52:00.538Z,83.13
2023-01-19T03:54:28.246Z,83.68
2023-01-19T03:56:55.800Z,85.60
2023-01-19T03:59:23.157Z,81.45
2023-01-19T04:01:50.594Z,77.88
2023-01-19T04:04:18.008Z,78.50
2023-01-19T04:06:45.465Z,88.45
2023-01-19T04:09:12.858Z,74.35
2023-01-19T04:11:40.387Z,81.70
2023-01-19T04:14:07.774Z,67.47
2023-01-19T04:16:35.586Z,59.25
2023-01-19T04:19:02.977Z,51.42
2023-01-19T04:21:30.354Z,52.38
2023-01-19T04:23:57.691Z,48.40
2023-01-19T04:26:25.411Z,49.08
2023-01-19T04:28:52.921Z,58.42
2023-01-19T04:31:20.446Z,60.38
2023-01-19T04:33:47.879Z,54.45
2023-01-19T04:36:15.402Z,58.90
2023-01-19T04:38:42.931Z,61.60
2023-01-19T04:41:10.351Z,65.05
2023-01-19T04:43:37.921Z,62.25
2023-01-19T04:46:05.556Z,64.55
2023-01-19T04:48:33.329Z,68.07
2023-01-19T04:51:00.703Z,73.47
2023-01-19T04:53:28.092Z,70.30
2023-01-19T04:55:55.717Z,68.80
2023-01-19T04:58:23.525Z,71.25
2023-01-19T05:00:52.213Z,79.22
2023-01-19T05:03:20.628Z,76.88
2023-01-19T05:05:48.167Z,78.72
2023-01-19T05:08:15.565Z,89.47
2023-01-19T05:10:42.908Z,81.45
2023-01-19T05:13:10.280Z,72.70
2023-01-19T05:15:37.609Z,79.80
2023-01-19T05:18:05.041Z,82.57
2023-01-19T05:20:32.440Z,81.60
2023-01-19T05:23:00.203Z,82.60
2023-01-19T05:25:27.981Z,85.40
2023-01-19T05:27:55.339Z,80.10
2023-01-19T05:30:22.833Z,83.88
2023-01-19T05:32:50.237Z,83.28
2023-01-19T05:35:20.160Z,79.93
2023-01-19T05:37:53.177Z,80.72
2023-01-19T05:40:20.632Z,81.15
2023-01-19T05:42:48.008Z,89.18
2023-01-19T05:45:15.406Z,79.40
2023-01-19T05:47:42.791Z,85.75
2023-01-19T05:50:10.551Z,82.28
2023-01-19T05:52:37.968Z,82.53
2023-01-19T05:55:05.779Z,82.68
2023-01-19T05:57:33.122Z,67.68
2023-01-19T06:00:01.323Z,53.15
2023-01-19T06:02:30.113Z,53.88
2023-01-19T06:04:57.567Z,47.58
2023-01-19T06:07:27.538Z,52.70
2023-01-19T06:10:00.222Z,47.33
2023-01-19T06:12:34.440Z,46.97
2023-01-19T06:15:04.309Z,47.45
2023-01-19T06:17:34.817Z,54.60
2023-01-19T06:20:03.001Z,56.40
2023-01-19T06:22:30.424Z,54.55
2023-01-19T06:24:57.802Z,56.50
2023-01-19T06:27:27.139Z,59.55
2023-01-19T06:29:54.656Z,63.50
2023-01-19T06:32:22.135Z,54.78
2023-01-19T06:34:49.484Z,55.78
2023-01-19T06:37:16.903Z,55.40
2023-01-19T06:39:45.398Z,60.30
2023-01-19T06:42:12.867Z,58.75
2023-01-19T06:44:47.221Z,62.40
2023-01-19T06:47:16.533Z,50.33
2023-01-19T06:49:44.089Z,53.97
2023-01-19T06:52:14.133Z,56.45
2023-01-19T06:54:43.371Z,51.20
2023-01-19T06:57:13.954Z,43.75
2023-01-19T06:59:41.397Z,55.53
2023-01-19T07:02:27.245Z,56.08
2023-01-19T07:04:56.782Z,49.60
2023-01-19T07:07:24.306Z,49.78
2023-01-19T07:09:53.842Z,49.05
2023-01-19T07:12:22.546Z,53.83
2023-01-19T07:14:50.020Z,50.30
2023-01-19T07:17:17.616Z,48.28
2023-01-19T07:19:46.580Z,41.33
2023-01-19T07:22:14.177Z,46.30
2023-01-19T07:24:41.569Z,44.38
2023-01-19T07:27:11.520Z,44.00
2023-01-19T07:29:39.263Z,58.35
2023-01-19T07:32:06.916Z,42.25
2023-01-19T07:34:34.764Z,36.17
2023-01-19T07:37:02.203Z,34.42
2023-01-19T07:39:30.756Z,37.90
2023-01-19T07:41:58.119Z,33.75
2023-01-19T07:44:25.466Z,36.72
2023-01-19T07:46:52.851Z,33.75
2023-01-19T07:49:20.683Z,36.75
2023-01-19T07:51:48.059Z,37.00
2023-01-19T07:54:15.489Z,38.15
2023-01-19T07:56:42.855Z,41.47
2023-01-19T07:59:11.181Z,38.90
2023-01-19T08:01:38.642Z,41.03
2023-01-19T08:04:06.282Z,37.05
2023-01-19T08:06:37.004Z,39.63
2023-01-19T08:09:05.716Z,38.28
2023-01-19T08:11:33.614Z,40.13
2023-01-19T08:14:02.332Z,44.00
2023-01-19T08:16:29.718Z,39.08
2023-01-19T08:18:57.162Z,41.72
2023-01-19T08:21:24.532Z,32.67
2023-01-19T08:23:56.431Z,33.50
2023-01-19T08:26:35.311Z,30.52
2023-01-19T08:29:05.103Z,34.30
2023-01-19T08:31:32.810Z,33.90
2023-01-19T08:34:00.241Z,29.77
2023-01-19T08:36:27.883Z,29.02
2023-01-19T08:38:55.202Z,36.78
2023-01-19T08:41:22.627Z,34.17
2023-01-19T08:43:50.060Z,21.00
2023-01-19T08:46:20.721Z,19.23
2023-01-19T08:48:48.723Z,21.00
2023-01-19T08:51:17.105Z,21.40
2023-01-19T08:53:44.571Z,19.98
2023-01-19T08:56:14.971Z,16.85
2023-01-19T08:58:43.976Z,17.17
2023-01-19T09:01:17.060Z,16.10
2023-01-19T09:03:44.674Z,15.38
2023-01-19T09:06:14.595Z,15.07
2023-01-19T09:08:41.956Z,17.38
2023-01-19T09:11:14.683Z,21.45
2023-01-19T09:13:42.335Z,22.70
2023-01-19T09:16:12.736Z,21.52
2023-01-19T09:18:40.139Z,18.98
2023-01-19T09:21:08.293Z,10.25
2023-01-19T09:23:35.665Z,10.25
2023-01-19T09:26:05.040Z,11.18
2023-01-19T09:28:32.916Z,16.08
2023-01-19T09:31:04.100Z,14.35
2023-01-19T09:33:31.522Z,9.48
2023-01-19T09:35:59.000Z,9.95
2023-01-19T09:38:27.039Z,11.75
2023-01-19T09:40:59.449Z,11.95
2023-01-19T09:43:35.702Z,13.63
2023-01-19T09:46:16.863Z,16.23
2023-01-19T09:48:51.360Z,17.10
2023-01-19T09:51:32.803Z,18.30
2023-01-19T09:54:19.288Z,17.27
2023-01-19T09:56:52.150Z,18.45
2023-01-19T09:59:29.828Z,13.52
2023-01-19T10:02:21.447Z,12.00
2023-01-19T10:04:51.806Z,11.55
2023-01-19T10:07:33.470Z,13.85
2023-01-19T10:10:31.186Z,19.45
2023-01-19T10:13:28.874Z,18.75
2023-01-19T10:16:25.599Z,16.10
2023-01-19T10:18:58.330Z,16.15
2023-01-19T10:21:37.670Z,13.23
2023-01-19T10:24:13.432Z,13.73
2023-01-19T10:26:48.582Z,15.75
2023-01-19T10:29:29.652Z,13.27
2023-01-19T10:32:05.391Z,12.55
2023-01-19T10:34:32.794Z,15.30
2023-01-19T10:37:11.783Z,16.63
2023-01-19T10:39:41.447Z,12.63
2023-01-19T10:42:12.817Z,22.17
2023-01-19T10:44:41.676Z,15.13
2023-01-19T10:47:16.760Z,8.75
2023-01-19T10:49:44.755Z,10.63
2023-01-19T10:52:39.819Z,8.57
2023-01-19T10:55:08.297Z,9.43
2023-01-19T10:57:38.414Z,8.55
2023-01-19T11:00:27.025Z,10.10
2023-01-19T11:02:54.677Z,6.78
2023-01-19T11:05:23.935Z,6.80
2023-01-19T11:12:14.801Z,8.38
2023-01-19T11:50:41.940Z,10.82
2023-01-19T11:53:37.233Z,8.82
2023-01-19T11:57:06.903Z,7.95
2023-01-19T13:25:06.311Z,8.77
2023-01-19T13:59:34.084Z,10.52
2023-01-19T14:02:24.984Z,13.98
2023-01-19T14:23:01.834Z,9.02
2023-01-19T14:26:42.049Z,6.88
2023-01-19T15:29:44.660Z,13.40
2023-01-19T15:32:43.853Z,17.08
2023-01-19T16:23:59.249Z,8.30
2023-01-19T16:26:35.139Z,7.45
2023-01-19T16:29:15.806Z,17.27
2023-01-19T16:31:48.777Z,25.52
2023-01-19T16:34:19.166Z,10.75
2023-01-19T16:36:49.583Z,3.72
2023-01-19T16:39:17.618Z,4.38
2023-01-19T16:41:46.913Z,4.68
2023-01-19T16:44:15.946Z,4.82
2023-01-19T16:46:46.347Z,4.90
2023-01-19T16:49:17.419Z,6.72
2023-01-19T16:51:45.934Z,5.30
2023-01-19T16:54:20.293Z,7.95
2023-01-19T16:56:52.165Z,5.75
2023-01-19T16:59:23.118Z,7.00
2023-01-19T17:01:52.531Z,11.73
2023-01-19T17:04:24.891Z,9.25
2023-01-19T17:07:04.658Z,6.18
2023-01-19T17:09:32.794Z,8.50
2023-01-19T17:12:00.611Z,11.13
2023-01-19T17:14:28.262Z,11.30
2023-01-19T17:16:56.075Z,7.18
2023-01-19T17:19:24.151Z,9.18
2023-01-19T17:21:56.956Z,6.80
2023-01-19T17:24:32.065Z,8.90
2023-01-19T17:26:59.863Z,12.80
2023-01-19T17:29:27.881Z,6.97
2023-01-19T17:31:59.048Z,15.35
2023-01-19T17:34:30.090Z,6.15
2023-01-19T17:37:03.079Z,4.00
2023-01-19T17:39:45.172Z,7.32
2023-01-19T17:42:16.225Z,6.70
2023-01-19T17:44:57.516Z,18.38
2023-01-19T17:47:51.939Z,5.55
2023-01-19T17:51:08.351Z,16.08
2023-01-19T17:53:41.235Z,6.07
2023-01-19T17:56:14.375Z,13.07
2023-01-19T17:58:46.403Z,5.03
2023-01-19T18:01:22.327Z,9.05
2023-01-19T18:03:54.511Z,8.98
2023-01-19T18:06:23.187Z,6.45
2023-01-19T18:08:51.542Z,6.70
2023-01-19T18:11:20.876Z,19.25
2023-01-19T18:13:49.862Z,11.93
2023-01-19T18:16:30.594Z,4.72
2023-01-19T18:19:01.419Z,6.30
2023-01-19T18:21:30.716Z,20.55
2023-01-19T18:24:02.079Z,6.57
2023-01-19T18:26:34.473Z,6.90
2023-01-19T18:29:02.167Z,7.57
2023-01-19T18:31:29.949Z,4.43
2023-01-19T18:33:57.488Z,6.18
2023-01-19T18:36:24.901Z,6.05
2023-01-19T18:38:52.401Z,6.80
2023-01-19T18:41:21.313Z,5.95
2023-01-19T18:43:49.325Z,17.63
2023-01-19T18:46:16.821Z,14.13
2023-01-19T18:48:44.477Z,15.88
2023-01-19T18:51:31.974Z,8.75
2023-01-19T18:54:00.004Z,12.50
2023-01-19T18:56:27.450Z,6.97
2023-01-19T18:58:54.913Z,8.65
2023-01-19T19:01:30.765Z,8.15
2023-01-19T19:03:59.930Z,7.78
2023-01-19T19:06:28.478Z,5.82
2023-01-19T19:08:59.089Z,6.63
2023-01-19T19:11:27.610Z,4.90
2023-01-19T19:14:00.526Z,6.40
2023-01-19T19:16:29.021Z,6.45
2023-01-19T19:18:56.862Z,10.43
2023-01-19T19:21:25.470Z,13.25
2023-01-19T19:23:58.153Z,18.67
2023-01-19T19:26:28.110Z,12.30
2023-01-19T19:28:55.681Z,6.88
2023-01-19T19:31:26.040Z,13.57
2023-01-19T19:33:55.419Z,12.45
2023-01-19T19:36:24.420Z,13.77
2023-01-19T19:38:51.889Z,13.27
2023-01-19T19:41:22.546Z,9.57
2023-01-19T19:43:50.685Z,7.30
2023-01-19T19:46:20.160Z,9.13
2023-01-19T19:48:52.195Z,363.50
2023-01-19T19:51:22.741Z,61.50
2023-01-19T19:53:51.883Z,13.60
2023-01-19T19:56:22.134Z,14.15
2023-01-19T19:58:51.123Z,18.88
2023-01-19T20:01:21.505Z,15.65
2023-01-19T20:03:49.322Z,17.50
2023-01-19T20:06:24.850Z,21.52
2023-01-19T20:08:54.390Z,23.23
2023-01-19T20:11:25.683Z,17.85
2023-01-19T20:13:53.164Z,23.45
2023-01-19T20:16:23.029Z,20.38
2023-01-19T20:18:54.041Z,19.95
2023-01-19T20:21:29.914Z,23.48
2023-01-19T20:24:01.140Z,24.48
2023-01-19T20:26:31.599Z,33.63
2023-01-19T20:29:02.876Z,27.58
2023-01-19T20:31:34.495Z,18.27
2023-01-19T20:34:07.394Z,23.63
2023-01-19T20:36:35.276Z,24.02
2023-01-19T20:39:08.523Z,27.55
2023-01-19T20:41:43.685Z,22.35
2023-01-19T20:44:16.666Z,26.60
2023-01-19T20:46:44.452Z,26.42
2023-01-19T20:49:12.735Z,27.27
2023-01-19T20:51:43.500Z,24.70
2023-01-19T20:54:12.292Z,26.38
2023-01-19T20:56:41.326Z,28.33
2023-01-19T20:59:10.705Z,26.75
2023-01-19T21:01:41.379Z,26.23
2023-01-19T21:04:10.413Z,27.92
2023-01-19T21:06:38.945Z,29.08
2023-01-19T21:09:07.254Z,31.30
2023-01-19T21:11:35.977Z,25.48
2023-01-19T21:14:03.728Z,23.92
2023-01-19T21:16:33.552Z,23.27
2023-01-19T21:19:01.251Z,30.85
2023-01-19T21:21:31.425Z,28.40
2023-01-19T21:24:01.116Z,30.45
2023-01-19T21:26:33.193Z,29.00
2023-01-19T21:31:28.877Z,27.77
2023-01-19T21:33:59.239Z,23.13
2023-01-19T21:36:27.017Z,23.83
2023-01-19T21:39:00.198Z,25.88
2023-01-19T21:41:29.911Z,23.00
2023-01-19T21:43:58.538Z,22.63
2023-01-19T21:46:29.150Z,24.40
2023-01-19T21:48:58.755Z,27.67
2023-01-19T21:51:26.317Z,22.45
2023-01-19T21:53:56.052Z,29.65
2023-01-19T21:56:23.408Z,26.67
2023-01-19T21:58:50.840Z,26.98
2023-01-19T22:01:18.278Z,28.73
2023-01-19T22:03:45.796Z,28.10
2023-01-19T22:06:14.561Z,27.20
2023-01-19T22:08:42.614Z,38.72
2023-01-19T22:11:12.382Z,34.10
2023-01-19T22:13:40.683Z,29.08
2023-01-19T22:16:10.903Z,17.13
2023-01-19T22:18:40.060Z,17.33
2023-01-19T22:21:19.450Z,20.52
2023-01-19T22:23:51.544Z,29.13
2023-01-19T22:28:46.582Z,26.33
2023-01-19T22:31:18.442Z,26.75
2023-01-19T22:33:46.220Z,24.13
2023-01-19T22:36:22.459Z,42.53
2023-01-19T22:38:53.922Z,55.35
2023-01-19T22:41:27.649Z,45.47
2023-01-19T22:44:04.591Z,264.75
2023-01-19T22:46:34.290Z,41.72
2023-01-19T22:49:02.616Z,28.00
2023-01-19T22:51:31.563Z,28.33
2023-01-19T22:53:59.029Z,25.35
2023-01-19T22:56:29.037Z,25.88
2023-01-19T22:58:57.521Z,25.73
2023-01-19T23:01:27.824Z,26.25
2023-01-19T23:03:56.765Z,30.45
2023-01-19T23:06:29.793Z,26.63
2023-01-19T23:09:01.939Z,28.17
2023-01-19T23:11:36.096Z,24.65
2023-01-19T23:14:04.744Z,24.05
2023-01-19T23:16:33.676Z,24.92
2023-01-19T23:19:01.045Z,26.60
2023-01-19T23:21:30.291Z,22.98
2023-01-19T23:24:00.334Z,25.88
2023-01-19T23:26:30.747Z,25.40
2023-01-19T23:29:00.819Z,27.15
2023-01-19T23:31:33.248Z,23.75
2023-01-19T23:34:03.999Z,27.58
2023-01-19T23:36:33.977Z,28.23
2023-01-19T23:39:09.956Z,26.75
2023-01-19T23:41:37.443Z,28.13
2023-01-19T23:44:05.092Z,29.15
2023-01-19T23:46:32.523Z,25.75
2023-01-19T23:49:00.184Z,24.23
2023-01-19T23:51:30.391Z,22.77
2023-01-19T23:53:59.236Z,25.73
2023-01-19T23:56:29.005Z,28.38
2023-01-19T23:59:03.231Z,23.38
